• Join FlightAware (Why Join?)
  • Login
  • US Flag 
07:17AM EDT


 

Airport Tracker/Info


-or-


 

Live Flight TrackerFlight Track Log ✈ USC105 ✈ 01-Jul-2013 ✈ KYIP - KDPA

Flight Track Log - Related Links

Times and Time Zones

All times are in EDT time to prevent confusion due to time zone crossing. See the USC105 flight status page for this flight to view local times or setup timezone preferences in your user account.

Time Position Orientation Groundspeed Altitude Reporting Facility
EDT Latitude Longitude Course Direction KTS MPH feet Rate Location/Type
12:18AM 42.2394 -83.5928 263° West 129 148 1,900  Level Cleveland Center
12:19AM 42.2381 -83.6458 268° West 147 169 2,900 960 Climbing Cleveland Center
12:20AM 42.2344 -83.7019 265° West 150 173 3,900 180 Climbing Cleveland Center
12:22AM 42.2121 -83.8389 267° West  Level FlightAware Approximate
12:23AM 42.2253 -83.9669 266° West 247 284 4,000  Level Chicago Center
12:24AM 42.2219 -84.0450 267° West 214 246 4,000  Level Chicago Center
12:25AM 42.2172 -84.1233 265° West 212 244 4,000  Level Chicago Center
12:26AM 42.2125 -84.2036 265° West 214 246 4,000  Level Chicago Center
12:27AM 42.2089 -84.2839 267° West 214 246 4,000  Level Chicago Center
12:28AM 42.2036 -84.3642 265° West 215 247 4,000  Level Chicago Center
12:29AM 42.1896 -84.3485 266° West  Level FlightAware Approximate
12:29AM 42.1992 -84.4431 266° West 214 246 4,000  Level Chicago Center
12:30AM 42.1931 -84.5233 264° West 211 243 4,000  Level Chicago Center
12:31AM 42.1886 -84.5975 265° West 209 241 4,000  Level Chicago Center
12:32AM 42.1842 -84.6764 266° West 210 242 4,000  Level Chicago Center
12:33AM 42.1789 -84.7706 266° West 211 243 4,000  Level Chicago Center
12:34AM 42.1747 -84.8500 266° West 212 244 4,000  Level Chicago Center
12:35AM 42.1683 -84.9297 264° West 215 247 4,000  Level Chicago Center
12:36AM 42.1631 -85.0089 265° West 214 246 4,000  Level Chicago Center
12:37AM 42.1586 -85.0875 266° West 213 245 4,000  Level Chicago Center
12:38AM 42.1525 -85.1653 264° West 211 243 4,000  Level Chicago Center
12:39AM 42.1478 -85.2433 265° West 212 244 4,000  Level Chicago Center
12:40AM 42.1428 -85.3219 265° West 212 244 4,000  Level Chicago Center
12:41AM 42.1372 -85.4008 265° West 212 244 4,000  Level Chicago Center
12:42AM 42.1322 -85.4806 265° West 214 246 4,000  Level Chicago Center
12:43AM 42.1269 -85.5586 265° West 213 245 4,000  Level Chicago Center
12:45AM 42.1211 -85.6381 264° West 213 245 4,000  Level Chicago Center
12:46AM 42.1156 -85.7186 265° West 216 249 4,000  Level Chicago Center
12:47AM 42.1094 -85.7981 264° West 215 247 4,000  Level Chicago Center
12:48AM 42.1036 -85.8764 264° West 213 245 4,000  Level Chicago Center
12:49AM 42.0983 -85.9561 265° West 214 246 4,000  Level Chicago Center
12:50AM 42.0925 -86.0350 264° West 214 246 4,000  Level Chicago Center
12:51AM 42.0867 -86.1144 264° West 213 245 4,000  Level Chicago Center
12:52AM 42.0800 -86.2089 265° West 213 245 4,000  Level Chicago Center
12:53AM 42.0739 -86.2869 264° West 211 243 4,000 120 Level Chicago Center
12:54AM 42.0675 -86.3650 264° West 211 243 4,300 480 Climbing Chicago Center
12:55AM 42.0631 -86.4333 265° West 192 221 5,000 540 Climbing Chicago Center
12:56AM 42.0561 -86.4978 262° West 178 205 5,500 480 Climbing Chicago Center
12:57AM 42.0519 -86.5633 265° West 177 204 6,000 240 Climbing Chicago Center
12:58AM 42.0458 -86.6347 263° West 188 216 6,000  Level Chicago Center
12:59AM 42.0408 -86.7100 265° West 198 228 6,000  Level Chicago Center
01:00AM 42.0347 -86.7942 264° West 204 235 6,000  Level Chicago Center
01:01AM 42.0294 -86.8706 265° West 206 237 6,000  Level Chicago Center
01:02AM 42.0228 -86.9475 263° West 208 239 6,000  Level Chicago Center
01:03AM 42.0150 -87.0242 262° West 208 239 6,000  Level Chicago Center
01:04AM 41.9972 -87.0994 252° West 213 245 6,000  Level Chicago Center
01:05AM 41.9794 -87.1756 253° West 214 246 6,000  Level Chicago Center
01:06AM 41.9625 -87.2511 253° West 213 245 6,000  Level Chicago Center
01:07AM 41.9456 -87.3264 253° West 212 244 6,000  Level Chicago Center
01:08AM 41.9278 -87.4017 252° West 214 246 6,000  Level Chicago Center
01:09AM 41.9178 -87.4767 260° West 210 242 6,000  Level Chicago Center
01:10AM 41.9192 -87.5511 271° West 204 235 6,000  Level Chicago Center
01:11AM 41.9169 -87.6264 268° West 204 235 6,000  Level Chicago Center
01:12AM 41.9147 -87.7033 268° West 208 239 6,000  Level Chicago Center
01:13AM 41.9128 -87.7792 268° West 206 237 6,000  Level Chicago Center
01:14AM 41.9094 -87.8536 267° West 203 234 6,000 -240 Level Chicago Center
01:14AM 41.9167 -87.9167 279° West 214 246 5,600 -840 Descending Chicago TRACON
01:15AM 41.9000 -88.0000 255° West 226 260 4,600 -1,140 Descending Chicago TRACON
01:16AM 41.9000 -88.0833 270° West 226 260 3,400 -1,200 Descending Chicago TRACON
01:17AM 41.8833 -88.1667 255° West 219 252 2,200 -840 Descending Chicago TRACON
01:18AM 41.8667 -88.2167 246° West 184 212 1,900 -540 Descending Chicago TRACON
01:19AM 41.8833 -88.2667 294° West 140 161 1,200 -720 Descending Chicago TRACON
01:22AM 41.9000 -88.2333 270° West  Level FlightAware Approximate